sensor_id;sensor_type;location;lat;lon;timestamp;temperature;humidity
46608;DHT22;32330;51.936;7.184;2023-03-01T04:48:26;-2.10;88.60
46608;DHT22;32330;51.936;7.184;2023-03-01T04:50:53;-2.20;87.50
46608;DHT22;32330;51.936;7.184;2023-03-01T04:53:20;-2.10;88.00
46608;DHT22;32330;51.936;7.184;2023-03-01T04:55:47;-2.10;87.50
46608;DHT22;32330;51.936;7.184;2023-03-01T04:58:14;-2.20;87.60
46608;DHT22;32330;51.936;7.184;2023-03-01T05:00:44;-2.20;87.90
46608;DHT22;32330;51.936;7.184;2023-03-01T05:03:11;-2.30;87.00
46608;DHT22;32330;51.936;7.184;2023-03-01T05:05:39;-2.30;85.90
46608;DHT22;32330;51.936;7.184;2023-03-01T05:08:07;-2.30;86.10
46608;DHT22;32330;51.936;7.184;2023-03-01T05:10:35;-2.30;88.10
46608;DHT22;32330;51.936;7.184;2023-03-01T05:13:04;-2.30;89.60
46608;DHT22;32330;51.936;7.184;2023-03-01T05:15:37;-2.30;89.30
46608;DHT22;32330;51.936;7.184;2023-03-01T05:18:04;-2.30;89.60
46608;DHT22;32330;51.936;7.184;2023-03-01T05:20:38;-2.40;89.70
46608;DHT22;32330;51.936;7.184;2023-03-01T05:23:05;-2.40;90.20
46608;DHT22;32330;51.936;7.184;2023-03-01T05:25:33;-2.30;90.80
46608;DHT22;32330;51.936;7.184;2023-03-01T05:28:01;-2.30;91.40
46608;DHT22;32330;51.936;7.184;2023-03-01T05:30:30;-2.30;90.80
46608;DHT22;32330;51.936;7.184;2023-03-01T05:32:58;-2.30;91.50
46608;DHT22;32330;51.936;7.184;2023-03-01T05:35:25;-2.20;92.10
46608;DHT22;32330;51.936;7.184;2023-03-01T05:37:54;-2.20;91.80
46608;DHT22;32330;51.936;7.184;2023-03-01T05:40:22;-2.20;91.50
46608;DHT22;32330;51.936;7.184;2023-03-01T05:42:52;-2.20;91.90
46608;DHT22;32330;51.936;7.184;2023-03-01T05:45:19;-2.10;91.70
46608;DHT22;32330;51.936;7.184;2023-03-01T05:47:48;-2.20;91.40
46608;DHT22;32330;51.936;7.184;2023-03-01T05:50:17;-2.20;91.70
46608;DHT22;32330;51.936;7.184;2023-03-01T05:52:46;-2.20;92.10
46608;DHT22;32330;51.936;7.184;2023-03-01T05:55:15;-2.20;91.90
46608;DHT22;32330;51.936;7.184;2023-03-01T05:57:42;-2.20;91.70
46608;DHT22;32330;51.936;7.184;2023-03-01T06:00:11;-2.20;92.20
46608;DHT22;32330;51.936;7.184;2023-03-01T06:02:38;-2.20;91.80
46608;DHT22;32330;51.936;7.184;2023-03-01T06:05:07;-2.20;91.70
46608;DHT22;32330;51.936;7.184;2023-03-01T06:07:34;-2.20;91.80
46608;DHT22;32330;51.936;7.184;2023-03-01T06:10:03;-2.20;91.50
46608;DHT22;32330;51.936;7.184;2023-03-01T06:12:32;-2.20;91.60
46608;DHT22;32330;51.936;7.184;2023-03-01T06:14:59;-2.20;91.40
46608;DHT22;32330;51.936;7.184;2023-03-01T06:17:29;-2.20;91.60
46608;DHT22;32330;51.936;7.184;2023-03-01T06:19:57;-2.20;91.20
46608;DHT22;32330;51.936;7.184;2023-03-01T06:22:24;-2.20;91.30
46608;DHT22;32330;51.936;7.184;2023-03-01T06:24:50;-2.20;91.30
46608;DHT22;32330;51.936;7.184;2023-03-01T06:27:18;-2.20;91.60
46608;DHT22;32330;51.936;7.184;2023-03-01T06:29:46;-2.20;91.30
46608;DHT22;32330;51.936;7.184;2023-03-01T06:32:16;-2.10;91.20
46608;DHT22;32330;51.936;7.184;2023-03-01T06:34:44;-2.10;90.80
46608;DHT22;32330;51.936;7.184;2023-03-01T06:37:11;-2.00;90.60
46608;DHT22;32330;51.936;7.184;2023-03-01T06:39:38;-2.00;90.40
46608;DHT22;32330;51.936;7.184;2023-03-01T06:42:07;-2.00;90.50
46608;DHT22;32330;51.936;7.184;2023-03-01T06:44:35;-2.00;90.10
46608;DHT22;32330;51.936;7.184;2023-03-01T06:47:04;-1.90;90.00
46608;DHT22;32330;51.936;7.184;2023-03-01T06:49:31;-1.90;89.60
46608;DHT22;32330;51.936;7.184;2023-03-01T06:51:58;-2.00;88.70
46608;DHT22;32330;51.936;7.184;2023-03-01T06:54:25;-1.90;88.00
46608;DHT22;32330;51.936;7.184;2023-03-01T06:56:52;-1.90;88.90
46608;DHT22;32330;51.936;7.184;2023-03-01T06:59:22;-1.90;89.80
46608;DHT22;32330;51.936;7.184;2023-03-01T07:01:55;-1.80;89.50
46608;DHT22;32330;51.936;7.184;2023-03-01T07:04:23;-1.80;89.00
46608;DHT22;32330;51.936;7.184;2023-03-01T07:06:50;-1.80;88.50
46608;DHT22;32330;51.936;7.184;2023-03-01T07:09:21;-1.70;88.50
46608;DHT22;32330;51.936;7.184;2023-03-01T07:11:48;-1.60;87.70
46608;DHT22;32330;51.936;7.184;2023-03-01T07:14:15;-1.60;87.20
46608;DHT22;32330;51.936;7.184;2023-03-01T07:16:42;-1.50;86.50
46608;DHT22;32330;51.936;7.184;2023-03-01T07:19:09;-1.50;86.40
46608;DHT22;32330;51.936;7.184;2023-03-01T07:21:38;-1.40;85.70
46608;DHT22;32330;51.936;7.184;2023-03-01T07:24:06;-1.40;85.00
46608;DHT22;32330;51.936;7.184;2023-03-01T07:26:33;-1.30;84.70
46608;DHT22;32330;51.936;7.184;2023-03-01T07:29:00;-1.30;84.70
46608;DHT22;32330;51.936;7.184;2023-03-01T07:31:27;-1.20;83.90
46608;DHT22;32330;51.936;7.184;2023-03-01T07:33:54;-1.10;82.40
46608;DHT22;32330;51.936;7.184;2023-03-01T07:36:21;-1.10;81.50
46608;DHT22;32330;51.936;7.184;2023-03-01T07:38:50;-1.00;81.30
46608;DHT22;32330;51.936;7.184;2023-03-01T07:41:17;-0.90;78.40
46608;DHT22;32330;51.936;7.184;2023-03-01T07:43:44;-0.80;77.80
46608;DHT22;32330;51.936;7.184;2023-03-01T07:46:14;-0.70;74.00
46608;DHT22;32330;51.936;7.184;2023-03-01T07:48:41;-0.70;74.50
46608;DHT22;32330;51.936;7.184;2023-03-01T07:51:09;-0.50;70.40
46608;DHT22;32330;51.936;7.184;2023-03-01T07:53:36;-0.40;65.30
46608;DHT22;32330;51.936;7.184;2023-03-01T07:56:07;-0.30;59.40
46608;DHT22;32330;51.936;7.184;2023-03-01T07:58:35;-0.20;54.30
46608;DHT22;32330;51.936;7.184;2023-03-01T08:01:02;-0.10;48.90
46608;DHT22;32330;51.936;7.184;2023-03-01T08:03:29;0.00;49.00
46608;DHT22;32330;51.936;7.184;2023-03-01T08:05:59;0.10;48.60
46608;DHT22;32330;51.936;7.184;2023-03-01T08:08:26;0.20;43.80
46608;DHT22;32330;51.936;7.184;2023-03-01T08:10:56;0.30;41.70
46608;DHT22;32330;51.936;7.184;2023-03-01T08:13:25;0.40;40.60
46608;DHT22;32330;51.936;7.184;2023-03-01T08:15:52;0.50;37.40
46608;DHT22;32330;51.936;7.184;2023-03-01T08:18:20;0.60;35.00
46608;DHT22;32330;51.936;7.184;2023-03-01T08:20:47;0.70;30.30
46608;DHT22;32330;51.936;7.184;2023-03-01T08:23:14;0.80;26.70
46608;DHT22;32330;51.936;7.184;2023-03-01T08:25:44;0.90;26.80
46608;DHT22;32330;51.936;7.184;2023-03-01T08:28:11;1.00;23.70
46608;DHT22;32330;51.936;7.184;2023-03-01T08:30:39;1.10;20.40
46608;DHT22;32330;51.936;7.184;2023-03-01T08:33:06;1.20;19.40
46608;DHT22;32330;51.936;7.184;2023-03-01T08:35:33;1.40;18.50
46608;DHT22;32330;51.936;7.184;2023-03-01T08:38:00;1.40;13.40
46608;DHT22;32330;51.936;7.184;2023-03-01T08:40:27;1.50;13.90
46608;DHT22;32330;51.936;7.184;2023-03-01T08:42:54;1.70;15.00
46608;DHT22;32330;51.936;7.184;2023-03-01T08:45:21;1.80;8.00
46608;DHT22;32330;51.936;7.184;2023-03-01T08:47:52;1.90;2.30
46608;DHT22;32330;51.936;7.184;2023-03-01T08:50:18;2.00;1.00
46608;DHT22;32330;51.936;7.184;2023-03-01T08:52:46;2.10;1.00
46608;DHT22;32330;51.936;7.184;2023-03-01T08:55:13;2.30;1.00
46608;DHT22;32330;51.936;7.184;2023-03-01T08:57:41;2.40;1.00
46608;DHT22;32330;51.936;7.184;2023-03-01T09:00:10;2.50;1.00
46608;DHT22;32330;51.936;7.184;2023-03-01T09:02:40;2.60;1.00
46608;DHT22;32330;51.936;7.184;2023-03-01T09:05:09;2.80;1.00
46608;DHT22;32330;51.936;7.184;2023-03-01T09:07:36;2.90;1.00
46608;DHT22;32330;51.936;7.184;2023-03-01T09:10:04;3.00;1.00
46608;DHT22;32330;51.936;7.184;2023-03-01T09:12:31;3.10;1.00
46608;DHT22;32330;51.936;7.184;2023-03-01T09:14:58;3.20;99.90
46608;DHT22;32330;51.936;7.184;2023-03-01T09:17:25;3.20;99.90
46608;DHT22;32330;51.936;7.184;2023-03-01T09:19:52;3.30;99.90
46608;DHT22;32330;51.936;7.184;2023-03-01T09:22:20;3.50;99.90
46608;DHT22;32330;51.936;7.184;2023-03-01T09:24:47;3.50;99.90
46608;DHT22;32330;51.936;7.184;2023-03-01T09:27:14;3.70;99.90
46608;DHT22;32330;51.936;7.184;2023-03-01T09:29:44;3.80;99.90
46608;DHT22;32330;51.936;7.184;2023-03-01T09:32:11;3.90;99.90
46608;DHT22;32330;51.936;7.184;2023-03-01T09:34:38;3.90;99.90
46608;DHT22;32330;51.936;7.184;2023-03-01T09:37:20;4.00;99.90
46608;DHT22;32330;51.936;7.184;2023-03-01T09:39:47;4.00;99.90
46608;DHT22;32330;51.936;7.184;2023-03-01T09:42:14;4.10;99.90
46608;DHT22;32330;51.936;7.184;2023-03-01T09:44:46;4.20;99.90
46608;DHT22;32330;51.936;7.184;2023-03-01T09:47:18;4.30;99.90
46608;DHT22;32330;51.936;7.184;2023-03-01T09:49:56;4.50;99.90
46608;DHT22;32330;51.936;7.184;2023-03-01T09:52:29;4.50;99.90
46608;DHT22;32330;51.936;7.184;2023-03-01T09:55:00;4.60;99.90
46608;DHT22;32330;51.936;7.184;2023-03-01T09:57:35;4.60;99.90
46608;DHT22;32330;51.936;7.184;2023-03-01T10:00:19;4.70;99.90
46608;DHT22;32330;51.936;7.184;2023-03-01T10:02:50;4.80;99.90
46608;DHT22;32330;51.936;7.184;2023-03-01T10:05:29;5.00;99.90
46608;DHT22;32330;51.936;7.184;2023-03-01T10:08:18;5.00;99.90
46608;DHT22;32330;51.936;7.184;2023-03-01T10:10:47;5.10;99.90
46608;DHT22;32330;51.936;7.184;2023-03-01T10:13:17;5.10;99.90
46608;DHT22;32330;51.936;7.184;2023-03-01T10:15:50;5.30;99.90
46608;DHT22;32330;51.936;7.184;2023-03-01T10:18:22;5.30;99.90
46608;DHT22;32330;51.936;7.184;2023-03-01T10:20:53;5.30;98.30
46608;DHT22;32330;51.936;7.184;2023-03-01T10:23:25;5.50;90.30
46608;DHT22;32330;51.936;7.184;2023-03-01T10:26:09;5.40;95.20
46608;DHT22;32330;51.936;7.184;2023-03-01T10:28:45;5.70;60.20
46608;DHT22;32330;51.936;7.184;2023-03-01T10:31:20;5.70;27.10
46608;DHT22;32330;51.936;7.184;2023-03-01T10:33:48;5.90;6.50
46608;DHT22;32330;51.936;7.184;2023-03-01T10:36:20;5.90;1.00
46608;DHT22;32330;51.936;7.184;2023-03-01T10:38:50;6.00;1.00
46608;DHT22;32330;51.936;7.184;2023-03-01T10:41:20;6.10;1.00
46608;DHT22;32330;51.936;7.184;2023-03-01T10:43:50;6.10;99.90
46608;DHT22;32330;51.936;7.184;2023-03-01T10:46:23;6.20;1.00
46608;DHT22;32330;51.936;7.184;2023-03-01T10:49:12;6.20;1.00
46608;DHT22;32330;51.936;7.184;2023-03-01T10:51:41;6.40;99.90
46608;DHT22;32330;51.936;7.184;2023-03-01T10:54:18;6.60;1.00
46608;DHT22;32330;51.936;7.184;2023-03-01T10:56:47;6.80;1.00
46608;DHT22;32330;51.936;7.184;2023-03-01T10:59:24;6.90;1.00
46608;DHT22;32330;51.936;7.184;2023-03-01T11:02:04;6.90;99.90
46608;DHT22;32330;51.936;7.184;2023-03-01T11:04:39;6.90;99.90
46608;DHT22;32330;51.936;7.184;2023-03-01T11:07:07;6.90;99.90
46608;DHT22;32330;51.936;7.184;2023-03-01T11:09:36;7.00;99.90
46608;DHT22;32330;51.936;7.184;2023-03-01T11:12:11;7.10;99.90
46608;DHT22;32330;51.936;7.184;2023-03-01T11:14:46;7.20;99.90
46608;DHT22;32330;51.936;7.184;2023-03-01T11:17:17;7.20;20.40
46608;DHT22;32330;51.936;7.184;2023-03-01T11:19:59;7.20;1.00
46608;DHT22;32330;51.936;7.184;2023-03-01T11:22:27;7.30;1.00
46608;DHT22;32330;51.936;7.184;2023-03-01T11:24:56;7.30;99.90
46608;DHT22;32330;51.936;7.184;2023-03-01T11:27:25;7.40;99.90
46608;DHT22;32330;51.936;7.184;2023-03-01T11:29:57;7.40;99.90
46608;DHT22;32330;51.936;7.184;2023-03-01T11:32:30;7.60;99.90
46608;DHT22;32330;51.936;7.184;2023-03-01T11:35:04;7.60;99.90
46608;DHT22;32330;51.936;7.184;2023-03-01T11:37:39;7.80;99.90
46608;DHT22;32330;51.936;7.184;2023-03-01T11:40:15;7.90;54.30
46608;DHT22;32330;51.936;7.184;2023-03-01T11:42:56;7.90;1.00
46608;DHT22;32330;51.936;7.184;2023-03-01T11:45:28;7.70;99.90
46608;DHT22;32330;51.936;7.184;2023-03-01T11:48:09;7.90;99.90
46608;DHT22;32330;51.936;7.184;2023-03-01T11:50:43;8.00;77.00
46608;DHT22;32330;51.936;7.184;2023-03-01T11:53:30;7.90;1.00
46608;DHT22;32330;51.936;7.184;2023-03-01T11:56:13;7.90;99.90
46608;DHT22;32330;51.936;7.184;2023-03-01T11:58:53;8.30;1.00
46608;DHT22;32330;51.936;7.184;2023-03-01T12:01:32;8.30;99.90
46608;DHT22;32330;51.936;7.184;2023-03-01T12:04:28;8.10;99.90
46608;DHT22;32330;51.936;7.184;2023-03-01T12:07:00;8.10;99.90
46608;DHT22;32330;51.936;7.184;2023-03-01T12:09:36;8.30;99.90
46608;DHT22;32330;51.936;7.184;2023-03-01T12:12:24;8.20;99.90
46608;DHT22;32330;51.936;7.184;2023-03-01T12:15:05;8.30;99.90
46608;DHT22;32330;51.936;7.184;2023-03-01T12:17:55;8.40;87.10
46608;DHT22;32330;51.936;7.184;2023-03-01T12:20:28;8.50;1.00
46608;DHT22;32330;51.936;7.184;2023-03-01T12:23:15;8.50;1.00
46608;DHT22;32330;51.936;7.184;2023-03-01T12:25:48;8.40;99.90
46608;DHT22;32330;51.936;7.184;2023-03-01T12:28:39;8.40;72.50
46608;DHT22;32330;51.936;7.184;2023-03-01T12:31:46;8.60;99.90
46608;DHT22;32330;51.936;7.184;2023-03-01T12:34:34;8.70;99.90
46608;DHT22;32330;51.936;7.184;2023-03-01T12:37:18;8.90;99.90
46608;DHT22;32330;51.936;7.184;2023-03-01T12:39:59;8.90;99.90
46608;DHT22;32330;51.936;7.184;2023-03-01T12:42:35;8.60;99.90
46608;DHT22;32330;51.936;7.184;2023-03-01T12:45:40;8.60;99.90
46608;DHT22;32330;51.936;7.184;2023-03-01T12:48:24;8.90;99.90
46608;DHT22;32330;51.936;7.184;2023-03-01T12:50:59;9.20;99.90
46608;DHT22;32330;51.936;7.184;2023-03-01T12:53:29;9.20;99.90
46608;DHT22;32330;51.936;7.184;2023-03-01T12:56:00;9.50;99.90
46608;DHT22;32330;51.936;7.184;2023-03-01T12:58:31;9.60;99.90
46608;DHT22;32330;51.936;7.184;2023-03-01T13:01:09;9.50;99.90
46608;DHT22;32330;51.936;7.184;2023-03-01T13:04:01;9.50;99.90
46608;DHT22;32330;51.936;7.184;2023-03-01T13:06:34;9.30;99.90
46608;DHT22;32330;51.936;7.184;2023-03-01T13:09:13;9.30;99.90
46608;DHT22;32330;51.936;7.184;2023-03-01T13:11:46;9.60;99.90
46608;DHT22;32330;51.936;7.184;2023-03-01T13:17:46;9.40;75.90
46608;DHT22;32330;51.936;7.184;2023-03-01T13:20:17;9.60;99.90
46608;DHT22;32330;51.936;7.184;2023-03-01T13:22:45;9.70;99.90
46608;DHT22;32330;51.936;7.184;2023-03-01T13:25:15;9.70;99.90
46608;DHT22;32330;51.936;7.184;2023-03-01T13:27:43;9.70;99.90
46608;DHT22;32330;51.936;7.184;2023-03-01T13:30:38;9.90;1.00
46608;DHT22;32330;51.936;7.184;2023-03-01T13:33:40;10.00;89.00
46608;DHT22;32330;51.936;7.184;2023-03-01T13:36:09;9.80;16.20
46608;DHT22;32330;51.936;7.184;2023-03-01T13:38:45;10.10;12.60
46608;DHT22;32330;51.936;7.184;2023-03-01T13:41:13;10.20;1.00
46608;DHT22;32330;51.936;7.184;2023-03-01T13:43:44;10.10;99.90
46608;DHT22;32330;51.936;7.184;2023-03-01T13:46:16;10.00;99.90
46608;DHT22;32330;51.936;7.184;2023-03-01T13:48:50;10.20;38.90
46608;DHT22;32330;51.936;7.184;2023-03-01T13:51:23;10.00;1.00
46608;DHT22;32330;51.936;7.184;2023-03-01T13:53:52;10.10;69.10
46608;DHT22;32330;51.936;7.184;2023-03-01T13:56:25;10.20;99.90
46608;DHT22;32330;51.936;7.184;2023-03-01T13:58:55;10.30;99.90
46608;DHT22;32330;51.936;7.184;2023-03-01T14:01:26;10.50;99.90
46608;DHT22;32330;51.936;7.184;2023-03-01T14:03:55;10.40;99.90
46608;DHT22;32330;51.936;7.184;2023-03-01T14:06:23;10.30;99.90
46608;DHT22;32330;51.936;7.184;2023-03-01T14:09:03;10.30;99.90
46608;DHT22;32330;51.936;7.184;2023-03-01T14:11:49;10.30;99.90
46608;DHT22;32330;51.936;7.184;2023-03-01T14:14:36;10.50;99.90
46608;DHT22;32330;51.936;7.184;2023-03-01T14:17:29;10.50;99.90
46608;DHT22;32330;51.936;7.184;2023-03-01T14:20:00;10.30;99.90
46608;DHT22;32330;51.936;7.184;2023-03-01T14:22:33;10.30;99.90
46608;DHT22;32330;51.936;7.184;2023-03-01T14:25:06;10.20;99.90
46608;DHT22;32330;51.936;7.184;2023-03-01T14:27:43;10.30;99.90
46608;DHT22;32330;51.936;7.184;2023-03-01T14:30:15;10.40;72.50
46608;DHT22;32330;51.936;7.184;2023-03-01T14:32:52;10.40;99.90
46608;DHT22;32330;51.936;7.184;2023-03-01T14:35:23;10.30;65.50
46608;DHT22;32330;51.936;7.184;2023-03-01T14:37:51;10.20;73.00
46608;DHT22;32330;51.936;7.184;2023-03-01T14:40:24;10.30;83.00
46608;DHT22;32330;51.936;7.184;2023-03-01T14:42:52;10.50;99.90
46608;DHT22;32330;51.936;7.184;2023-03-01T14:45:20;10.60;99.90
46608;DHT22;32330;51.936;7.184;2023-03-01T14:47:47;10.60;99.90
46608;DHT22;32330;51.936;7.184;2023-03-01T14:50:23;10.50;99.90
46608;DHT22;32330;51.936;7.184;2023-03-01T14:52:54;10.30;99.90
46608;DHT22;32330;51.936;7.184;2023-03-01T14:55:24;10.30;99.90
46608;DHT22;32330;51.936;7.184;2023-03-01T14:57:52;10.20;77.20
46608;DHT22;32330;51.936;7.184;2023-03-01T15:00:22;10.20;24.10
46608;DHT22;32330;51.936;7.184;2023-03-01T15:02:51;10.10;1.00
46608;DHT22;32330;51.936;7.184;2023-03-01T15:05:25;9.90;1.00
46608;DHT22;32330;51.936;7.184;2023-03-01T15:07:53;9.80;1.00
46608;DHT22;32330;51.936;7.184;2023-03-01T15:10:22;9.60;1.00
46608;DHT22;32330;51.936;7.184;2023-03-01T15:12:51;9.60;1.00
46608;DHT22;32330;51.936;7.184;2023-03-01T15:15:38;9.60;1.00
46608;DHT22;32330;51.936;7.184;2023-03-01T15:18:15;9.50;1.00
46608;DHT22;32330;51.936;7.184;2023-03-01T15:20:45;9.60;1.00
46608;DHT22;32330;51.936;7.184;2023-03-01T15:23:22;9.60;1.00
46608;DHT22;32330;51.936;7.184;2023-03-01T15:25:51;9.50;60.70
46608;DHT22;32330;51.936;7.184;2023-03-01T15:28:24;9.40;1.00
46608;DHT22;32330;51.936;7.184;2023-03-01T15:30:55;9.30;1.00
46608;DHT22;32330;51.936;7.184;2023-03-01T15:33:32;9.30;3.90
46608;DHT22;32330;51.936;7.184;2023-03-01T15:36:03;9.30;99.90
46608;DHT22;32330;51.936;7.184;2023-03-01T15:38:35;9.20;99.90
46608;DHT22;32330;51.936;7.184;2023-03-01T15:41:06;9.20;1.00
46608;DHT22;32330;51.936;7.184;2023-03-01T15:43:47;9.00;99.90
46608;DHT22;32330;51.936;7.184;2023-03-01T15:46:27;9.10;99.90
46608;DHT22;32330;51.936;7.184;2023-03-01T15:48:56;9.00;99.90
46608;DHT22;32330;51.936;7.184;2023-03-01T15:51:33;8.90;99.90
46608;DHT22;32330;51.936;7.184;2023-03-01T15:54:04;8.90;99.90
46608;DHT22;32330;51.936;7.184;2023-03-01T15:56:31;8.70;99.90
46608;DHT22;32330;51.936;7.184;2023-03-01T15:58:59;8.70;99.90
46608;DHT22;32330;51.936;7.184;2023-03-01T16:01:27;8.60;99.90
46608;DHT22;32330;51.936;7.184;2023-03-01T16:03:55;8.40;99.90
46608;DHT22;32330;51.936;7.184;2023-03-01T16:06:24;8.40;99.90
46608;DHT22;32330;51.936;7.184;2023-03-01T16:08:52;8.30;99.90
46608;DHT22;32330;51.936;7.184;2023-03-01T16:11:20;8.30;1.00
46608;DHT22;32330;51.936;7.184;2023-03-01T16:13:49;8.20;1.00
46608;DHT22;32330;51.936;7.184;2023-03-01T16:16:17;8.20;1.00
46608;DHT22;32330;51.936;7.184;2023-03-01T16:18:45;8.10;16.60
46608;DHT22;32330;51.936;7.184;2023-03-01T16:21:18;8.10;43.20
46608;DHT22;32330;51.936;7.184;2023-03-01T16:23:48;8.00;1.00
46608;DHT22;32330;51.936;7.184;2023-03-01T16:26:18;8.00;40.30
46608;DHT22;32330;51.936;7.184;2023-03-01T16:28:46;7.90;1.00
46608;DHT22;32330;51.936;7.184;2023-03-01T16:31:17;7.80;38.80
46608;DHT22;32330;51.936;7.184;2023-03-01T16:33:44;7.70;29.30
46608;DHT22;32330;51.936;7.184;2023-03-01T16:36:17;7.60;9.60
46608;DHT22;32330;51.936;7.184;2023-03-01T16:38:47;7.50;81.00
46608;DHT22;32330;51.936;7.184;2023-03-01T16:41:20;7.40;96.60
46608;DHT22;32330;51.936;7.184;2023-03-01T16:43:48;7.30;99.90
46608;DHT22;32330;51.936;7.184;2023-03-01T16:46:16;7.20;99.90
46608;DHT22;32330;51.936;7.184;2023-03-01T16:48:45;7.10;99.90
46608;DHT22;32330;51.936;7.184;2023-03-01T16:51:12;7.10;99.90
46608;DHT22;32330;51.936;7.184;2023-03-01T16:53:54;7.00;99.70
46608;DHT22;32330;51.936;7.184;2023-03-01T16:56:25;6.90;99.90
46608;DHT22;32330;51.936;7.184;2023-03-01T16:58:54;6.80;99.90
46608;DHT22;32330;51.936;7.184;2023-03-01T17:01:21;6.70;99.90
46608;DHT22;32330;51.936;7.184;2023-03-01T17:03:50;6.70;99.90
46608;DHT22;32330;51.936;7.184;2023-03-01T17:06:19;6.50;99.90
46608;DHT22;32330;51.936;7.184;2023-03-01T17:08:47;6.50;99.90
46608;DHT22;32330;51.936;7.184;2023-03-01T17:11:18;6.50;99.90
46608;DHT22;32330;51.936;7.184;2023-03-01T17:13:47;6.30;99.90
46608;DHT22;32330;51.936;7.184;2023-03-01T17:16:18;6.20;99.90
46608;DHT22;32330;51.936;7.184;2023-03-01T17:18:46;6.20;99.90
46608;DHT22;32330;51.936;7.184;2023-03-01T17:21:16;6.10;99.90
46608;DHT22;32330;51.936;7.184;2023-03-01T17:23:44;5.90;99.90
46608;DHT22;32330;51.936;7.184;2023-03-01T17:26:11;5.90;99.90
46608;DHT22;32330;51.936;7.184;2023-03-01T17:28:38;5.70;99.90
46608;DHT22;32330;51.936;7.184;2023-03-01T17:31:07;5.70;99.90
46608;DHT22;32330;51.936;7.184;2023-03-01T17:33:34;5.60;99.90
46608;DHT22;32330;51.936;7.184;2023-03-01T17:36:01;5.50;99.90
46608;DHT22;32330;51.936;7.184;2023-03-01T17:38:29;5.50;1.00
46608;DHT22;32330;51.936;7.184;2023-03-01T17:40:58;5.40;1.00
46608;DHT22;32330;51.936;7.184;2023-03-01T17:43:29;5.30;1.00
46608;DHT22;32330;51.936;7.184;2023-03-01T17:45:56;5.20;99.90
46608;DHT22;32330;51.936;7.184;2023-03-01T17:48:24;5.20;99.90
46608;DHT22;32330;51.936;7.184;2023-03-01T17:50:52;5.10;99.90
46608;DHT22;32330;51.936;7.184;2023-03-01T17:53:19;5.10;99.90
46608;DHT22;32330;51.936;7.184;2023-03-01T17:55:46;5.10;99.90
46608;DHT22;32330;51.936;7.184;2023-03-01T17:58:14;5.00;99.90
46608;DHT22;32330;51.936;7.184;2023-03-01T18:00:47;4.90;99.90
46608;DHT22;32330;51.936;7.184;2023-03-01T18:03:16;4.90;99.90
46608;DHT22;32330;51.936;7.184;2023-03-01T18:05:45;4.80;1.00
46608;DHT22;32330;51.936;7.184;2023-03-01T18:08:12;4.70;1.00
46608;DHT22;32330;51.936;7.184;2023-03-01T18:10:42;4.60;1.00
46608;DHT22;32330;51.936;7.184;2023-03-01T18:13:09;4.60;90.40
46608;DHT22;32330;51.936;7.184;2023-03-01T18:15:39;4.50;97.20
46608;DHT22;32330;51.936;7.184;2023-03-01T18:18:08;4.40;99.90
46608;DHT22;32330;51.936;7.184;2023-03-01T18:20:35;4.40;99.90
46608;DHT22;32330;51.936;7.184;2023-03-01T18:23:03;4.30;99.90
46608;DHT22;32330;51.936;7.184;2023-03-01T18:25:31;4.20;99.90
46608;DHT22;32330;51.936;7.184;2023-03-01T18:27:58;4.20;1.00
46608;DHT22;32330;51.936;7.184;2023-03-01T18:30:26;4.10;97.80
46608;DHT22;32330;51.936;7.184;2023-03-01T18:32:53;4.00;99.90
46608;DHT22;32330;51.936;7.184;2023-03-01T18:35:23;4.00;99.90
46608;DHT22;32330;51.936;7.184;2023-03-01T18:37:50;3.90;99.90
46608;DHT22;32330;51.936;7.184;2023-03-01T18:40:24;3.90;99.90
46608;DHT22;32330;51.936;7.184;2023-03-01T18:42:51;3.90;99.90
46608;DHT22;32330;51.936;7.184;2023-03-01T18:45:18;3.80;99.90
46608;DHT22;32330;51.936;7.184;2023-03-01T18:47:45;3.70;99.90
46608;DHT22;32330;51.936;7.184;2023-03-01T18:50:14;3.70;99.90
46608;DHT22;32330;51.936;7.184;2023-03-01T18:52:41;3.60;1.00
46608;DHT22;32330;51.936;7.184;2023-03-01T18:55:09;3.50;12.20
46608;DHT22;32330;51.936;7.184;2023-03-01T18:57:57;3.50;58.00
46608;DHT22;32330;51.936;7.184;2023-03-01T19:00:24;3.40;94.20
46608;DHT22;32330;51.936;7.184;2023-03-01T19:02:51;3.40;99.90
46608;DHT22;32330;51.936;7.184;2023-03-01T19:05:18;3.30;52.50
46608;DHT22;32330;51.936;7.184;2023-03-01T19:07:45;3.30;1.00
46608;DHT22;32330;51.936;7.184;2023-03-01T19:10:12;3.30;1.00
46608;DHT22;32330;51.936;7.184;2023-03-01T19:12:39;3.30;54.20
46608;DHT22;32330;51.936;7.184;2023-03-01T19:15:08;3.30;99.90
46608;DHT22;32330;51.936;7.184;2023-03-01T19:17:35;3.20;1.00
46608;DHT22;32330;51.936;7.184;2023-03-01T19:20:03;3.20;1.00
46608;DHT22;32330;51.936;7.184;2023-03-01T19:22:30;3.30;26.00
46608;DHT22;32330;51.936;7.184;2023-03-01T19:24:57;3.20;1.00
46608;DHT22;32330;51.936;7.184;2023-03-01T19:27:24;3.20;26.40
46608;DHT22;32330;51.936;7.184;2023-03-01T19:29:51;3.10;99.90
46608;DHT22;32330;51.936;7.184;2023-03-01T19:32:19;3.10;99.90
46608;DHT22;32330;51.936;7.184;2023-03-01T19:34:46;3.00;99.90
46608;DHT22;32330;51.936;7.184;2023-03-01T19:37:13;3.00;99.90
46608;DHT22;32330;51.936;7.184;2023-03-01T19:39:41;2.90;99.90
46608;DHT22;32330;51.936;7.184;2023-03-01T19:42:08;2.90;99.90
46608;DHT22;32330;51.936;7.184;2023-03-01T19:44:35;2.90;99.90
46608;DHT22;32330;51.936;7.184;2023-03-01T19:47:05;2.90;99.90
46608;DHT22;32330;51.936;7.184;2023-03-01T19:49:33;2.80;99.90
46608;DHT22;32330;51.936;7.184;2023-03-01T19:52:04;2.80;99.90
46608;DHT22;32330;51.936;7.184;2023-03-01T19:54:31;2.70;99.90
46608;DHT22;32330;51.936;7.184;2023-03-01T19:56:58;2.70;99.90
46608;DHT22;32330;51.936;7.184;2023-03-01T19:59:25;2.70;99.90
46608;DHT22;32330;51.936;7.184;2023-03-01T20:01:53;2.60;99.90
46608;DHT22;32330;51.936;7.184;2023-03-01T20:04:20;2.60;99.90
46608;DHT22;32330;51.936;7.184;2023-03-01T20:06:50;2.60;99.90
46608;DHT22;32330;51.936;7.184;2023-03-01T20:09:16;2.60;99.90
46608;DHT22;32330;51.936;7.184;2023-03-01T20:11:43;2.60;99.90
46608;DHT22;32330;51.936;7.184;2023-03-01T20:14:13;2.50;99.90
46608;DHT22;32330;51.936;7.184;2023-03-01T20:16:40;2.50;99.90
46608;DHT22;32330;51.936;7.184;2023-03-01T20:19:07;2.50;99.90
46608;DHT22;32330;51.936;7.184;2023-03-01T20:21:34;2.50;99.90
46608;DHT22;32330;51.936;7.184;2023-03-01T20:24:03;2.40;1.00
46608;DHT22;32330;51.936;7.184;2023-03-01T20:26:30;2.40;1.00
46608;DHT22;32330;51.936;7.184;2023-03-01T20:28:57;2.30;1.00
46608;DHT22;32330;51.936;7.184;2023-03-01T20:31:25;2.30;1.00
46608;DHT22;32330;51.936;7.184;2023-03-01T20:33:54;2.30;1.00
46608;DHT22;32330;51.936;7.184;2023-03-01T20:36:22;2.30;8.50
46608;DHT22;32330;51.936;7.184;2023-03-01T20:38:51;2.30;17.60
46608;DHT22;32330;51.936;7.184;2023-03-01T20:41:20;2.30;44.70
46608;DHT22;32330;51.936;7.184;2023-03-01T20:43:50;2.20;24.30
46608;DHT22;32330;51.936;7.184;2023-03-01T20:46:21;2.30;1.00
46608;DHT22;32330;51.936;7.184;2023-03-01T20:48:51;2.30;1.00
46608;DHT22;32330;51.936;7.184;2023-03-01T20:51:18;2.30;1.00
46608;DHT22;32330;51.936;7.184;2023-03-01T20:53:45;2.20;1.00
46608;DHT22;32330;51.936;7.184;2023-03-01T20:56:14;2.30;99.90
46608;DHT22;32330;51.936;7.184;2023-03-01T20:59:01;2.30;99.90